sensor_id;sensor_type;location;lat;lon;timestamp;P1;durP1;ratioP1;P2;durP2;ratioP2
58756;SDS011;44527;47.460;19.016;2022-08-19T00:02:25;10.13;;;7.57;;
58756;SDS011;44527;47.460;19.016;2022-08-19T00:05:27;10.02;;;6.78;;
58756;SDS011;44527;47.460;19.016;2022-08-19T00:08:30;13.88;;;6.80;;
58756;SDS011;44527;47.460;19.016;2022-08-19T00:11:33;11.57;;;7.45;;
58756;SDS011;44527;47.460;19.016;2022-08-19T00:14:37;11.40;;;7.00;;
58756;SDS011;44527;47.460;19.016;2022-08-19T00:17:41;11.05;;;6.70;;
58756;SDS011;44527;47.460;19.016;2022-08-19T00:20:45;15.98;;;6.85;;
58756;SDS011;44527;47.460;19.016;2022-08-19T00:23:47;15.48;;;7.00;;
58756;SDS011;44527;47.460;19.016;2022-08-19T00:26:50;9.75;;;7.15;;
58756;SDS011;44527;47.460;19.016;2022-08-19T00:29:53;11.40;;;6.40;;
58756;SDS011;44527;47.460;19.016;2022-08-19T00:32:56;12.25;;;6.62;;
58756;SDS011;44527;47.460;19.016;2022-08-19T00:35:59;10.52;;;6.60;;
58756;SDS011;44527;47.460;19.016;2022-08-19T00:39:08;11.63;;;6.60;;
58756;SDS011;44527;47.460;19.016;2022-08-19T00:42:10;10.40;;;6.90;;
58756;SDS011;44527;47.460;19.016;2022-08-19T00:45:18;15.52;;;7.28;;
58756;SDS011;44527;47.460;19.016;2022-08-19T00:48:24;16.02;;;6.75;;
58756;SDS011;44527;47.460;19.016;2022-08-19T00:51:27;9.65;;;7.07;;
58756;SDS011;44527;47.460;19.016;2022-08-19T00:54:32;16.48;;;7.00;;
58756;SDS011;44527;47.460;19.016;2022-08-19T00:57:35;8.82;;;6.50;;
58756;SDS011;44527;47.460;19.016;2022-08-19T01:00:42;17.75;;;6.60;;
58756;SDS011;44527;47.460;19.016;2022-08-19T01:03:44;13.18;;;7.07;;
58756;SDS011;44527;47.460;19.016;2022-08-19T01:06:59;15.23;;;6.62;;
58756;SDS011;44527;47.460;19.016;2022-08-19T01:10:03;12.10;;;7.60;;
58756;SDS011;44527;47.460;19.016;2022-08-19T01:13:08;13.13;;;6.47;;
58756;SDS011;44527;47.460;19.016;2022-08-19T01:16:11;11.32;;;6.60;;
58756;SDS011;44527;47.460;19.016;2022-08-19T01:19:31;14.32;;;7.20;;
58756;SDS011;44527;47.460;19.016;2022-08-19T01:22:55;14.02;;;7.10;;
58756;SDS011;44527;47.460;19.016;2022-08-19T01:26:00;11.40;;;7.12;;
58756;SDS011;44527;47.460;19.016;2022-08-19T01:29:03;14.27;;;8.10;;
58756;SDS011;44527;47.460;19.016;2022-08-19T01:32:07;13.40;;;6.97;;
58756;SDS011;44527;47.460;19.016;2022-08-19T01:35:31;10.98;;;7.37;;
58756;SDS011;44527;47.460;19.016;2022-08-19T01:38:35;10.68;;;7.72;;
58756;SDS011;44527;47.460;19.016;2022-08-19T01:41:45;14.10;;;7.25;;
58756;SDS011;44527;47.460;19.016;2022-08-19T01:44:49;8.65;;;6.87;;
58756;SDS011;44527;47.460;19.016;2022-08-19T01:47:52;13.75;;;7.85;;
58756;SDS011;44527;47.460;19.016;2022-08-19T01:51:03;15.55;;;7.30;;
58756;SDS011;44527;47.460;19.016;2022-08-19T01:54:07;11.88;;;7.05;;
58756;SDS011;44527;47.460;19.016;2022-08-19T01:57:12;11.18;;;6.93;;
58756;SDS011;44527;47.460;19.016;2022-08-19T02:00:16;14.63;;;7.03;;
58756;SDS011;44527;47.460;19.016;2022-08-19T02:03:20;9.95;;;6.78;;
58756;SDS011;44527;47.460;19.016;2022-08-19T02:06:24;9.57;;;7.07;;
58756;SDS011;44527;47.460;19.016;2022-08-19T02:09:28;10.85;;;7.07;;
58756;SDS011;44527;47.460;19.016;2022-08-19T02:12:30;13.77;;;7.22;;
58756;SDS011;44527;47.460;19.016;2022-08-19T02:15:33;13.20;;;6.53;;
58756;SDS011;44527;47.460;19.016;2022-08-19T02:18:35;10.98;;;7.37;;
58756;SDS011;44527;47.460;19.016;2022-08-19T02:21:38;12.52;;;7.10;;
58756;SDS011;44527;47.460;19.016;2022-08-19T02:24:40;16.00;;;7.57;;
58756;SDS011;44527;47.460;19.016;2022-08-19T02:27:43;13.15;;;6.97;;
58756;SDS011;44527;47.460;19.016;2022-08-19T02:30:46;9.85;;;6.53;;
58756;SDS011;44527;47.460;19.016;2022-08-19T02:33:49;11.23;;;7.30;;
58756;SDS011;44527;47.460;19.016;2022-08-19T02:36:52;12.88;;;7.07;;
58756;SDS011;44527;47.460;19.016;2022-08-19T02:39:54;12.27;;;6.78;;
58756;SDS011;44527;47.460;19.016;2022-08-19T02:42:57;14.87;;;6.97;;
58756;SDS011;44527;47.460;19.016;2022-08-19T02:45:59;12.02;;;6.70;;
58756;SDS011;44527;47.460;19.016;2022-08-19T02:49:03;12.77;;;7.03;;
58756;SDS011;44527;47.460;19.016;2022-08-19T02:52:09;12.27;;;7.23;;
58756;SDS011;44527;47.460;19.016;2022-08-19T02:55:12;13.02;;;7.50;;
58756;SDS011;44527;47.460;19.016;2022-08-19T02:58:15;9.85;;;6.78;;
58756;SDS011;44527;47.460;19.016;2022-08-19T03:01:24;13.98;;;7.53;;
58756;SDS011;44527;47.460;19.016;2022-08-19T03:04:31;9.18;;;6.87;;
58756;SDS011;44527;47.460;19.016;2022-08-19T03:07:34;12.18;;;7.60;;
58756;SDS011;44527;47.460;19.016;2022-08-19T03:10:39;11.93;;;7.62;;
58756;SDS011;44527;47.460;19.016;2022-08-19T03:13:45;11.93;;;6.82;;
58756;SDS011;44527;47.460;19.016;2022-08-19T03:16:49;12.43;;;7.72;;
58756;SDS011;44527;47.460;19.016;2022-08-19T03:19:53;11.07;;;7.18;;
58756;SDS011;44527;47.460;19.016;2022-08-19T03:22:55;18.52;;;6.87;;
58756;SDS011;44527;47.460;19.016;2022-08-19T03:25:58;18.75;;;8.10;;
58756;SDS011;44527;47.460;19.016;2022-08-19T03:29:18;9.57;;;6.70;;
58756;SDS011;44527;47.460;19.016;2022-08-19T03:32:31;13.50;;;7.45;;
58756;SDS011;44527;47.460;19.016;2022-08-19T03:35:34;11.57;;;6.93;;
58756;SDS011;44527;47.460;19.016;2022-08-19T03:38:41;14.27;;;7.62;;
58756;SDS011;44527;47.460;19.016;2022-08-19T03:41:46;13.65;;;6.53;;
58756;SDS011;44527;47.460;19.016;2022-08-19T03:45:11;12.18;;;7.05;;
58756;SDS011;44527;47.460;19.016;2022-08-19T03:48:14;11.70;;;7.78;;
58756;SDS011;44527;47.460;19.016;2022-08-19T03:51:19;12.15;;;6.97;;
58756;SDS011;44527;47.460;19.016;2022-08-19T03:54:32;12.32;;;6.75;;
58756;SDS011;44527;47.460;19.016;2022-08-19T03:57:34;11.75;;;7.37;;
58756;SDS011;44527;47.460;19.016;2022-08-19T04:00:37;12.30;;;7.25;;
58756;SDS011;44527;47.460;19.016;2022-08-19T04:03:39;9.77;;;6.90;;
58756;SDS011;44527;47.460;19.016;2022-08-19T04:06:42;12.00;;;7.10;;
58756;SDS011;44527;47.460;19.016;2022-08-19T04:09:45;15.70;;;7.65;;
58756;SDS011;44527;47.460;19.016;2022-08-19T04:12:47;14.07;;;7.45;;
58756;SDS011;44527;47.460;19.016;2022-08-19T04:15:50;12.48;;;7.45;;
58756;SDS011;44527;47.460;19.016;2022-08-19T04:18:52;22.23;;;8.15;;
58756;SDS011;44527;47.460;19.016;2022-08-19T04:21:55;15.18;;;9.88;;
58756;SDS011;44527;47.460;19.016;2022-08-19T04:24:57;13.88;;;6.87;;
58756;SDS011;44527;47.460;19.016;2022-08-19T04:27:59;17.80;;;7.82;;
58756;SDS011;44527;47.460;19.016;2022-08-19T04:31:02;11.32;;;7.25;;
58756;SDS011;44527;47.460;19.016;2022-08-19T04:34:05;9.65;;;6.80;;
58756;SDS011;44527;47.460;19.016;2022-08-19T04:37:09;11.43;;;7.10;;
58756;SDS011;44527;47.460;19.016;2022-08-19T04:40:13;13.60;;;7.40;;
58756;SDS011;44527;47.460;19.016;2022-08-19T04:43:35;14.95;;;7.68;;
58756;SDS011;44527;47.460;19.016;2022-08-19T04:46:39;11.70;;;6.87;;
58756;SDS011;44527;47.460;19.016;2022-08-19T04:49:52;13.10;;;6.87;;
58756;SDS011;44527;47.460;19.016;2022-08-19T04:52:55;12.20;;;7.70;;
58756;SDS011;44527;47.460;19.016;2022-08-19T04:55:58;18.20;;;7.97;;
58756;SDS011;44527;47.460;19.016;2022-08-19T04:59:01;14.48;;;7.10;;
58756;SDS011;44527;47.460;19.016;2022-08-19T05:02:07;20.40;;;7.10;;
58756;SDS011;44527;47.460;19.016;2022-08-19T05:05:10;9.05;;;7.28;;
58756;SDS011;44527;47.460;19.016;2022-08-19T05:08:13;14.98;;;7.65;;
58756;SDS011;44527;47.460;19.016;2022-08-19T05:11:34;11.50;;;6.65;;
58756;SDS011;44527;47.460;19.016;2022-08-19T05:14:40;15.75;;;7.25;;
58756;SDS011;44527;47.460;19.016;2022-08-19T05:17:42;13.95;;;6.60;;
58756;SDS011;44527;47.460;19.016;2022-08-19T05:21:06;14.45;;;6.90;;
58756;SDS011;44527;47.460;19.016;2022-08-19T05:24:30;8.35;;;6.37;;
58756;SDS011;44527;47.460;19.016;2022-08-19T05:27:35;13.03;;;6.87;;
58756;SDS011;44527;47.460;19.016;2022-08-19T05:30:38;10.07;;;6.22;;
58756;SDS011;44527;47.460;19.016;2022-08-19T05:33:49;10.90;;;6.28;;
58756;SDS011;44527;47.460;19.016;2022-08-19T05:36:58;9.23;;;5.80;;
58756;SDS011;44527;47.460;19.016;2022-08-19T05:40:01;10.77;;;6.07;;
58756;SDS011;44527;47.460;19.016;2022-08-19T05:43:05;9.73;;;5.95;;
58756;SDS011;44527;47.460;19.016;2022-08-19T05:46:15;19.98;;;6.50;;
58756;SDS011;44527;47.460;19.016;2022-08-19T05:49:32;17.25;;;6.50;;
58756;SDS011;44527;47.460;19.016;2022-08-19T05:52:34;13.68;;;5.97;;
58756;SDS011;44527;47.460;19.016;2022-08-19T05:55:44;9.63;;;5.68;;
58756;SDS011;44527;47.460;19.016;2022-08-19T05:58:47;14.07;;;5.50;;
58756;SDS011;44527;47.460;19.016;2022-08-19T06:01:50;7.65;;;5.25;;
58756;SDS011;44527;47.460;19.016;2022-08-19T06:05:01;28.80;;;6.47;;
58756;SDS011;44527;47.460;19.016;2022-08-19T06:08:12;8.57;;;5.85;;
58756;SDS011;44527;47.460;19.016;2022-08-19T06:14:35;9.90;;;6.03;;
58756;SDS011;44527;47.460;19.016;2022-08-19T06:17:45;12.63;;;5.12;;
58756;SDS011;44527;47.460;19.016;2022-08-19T06:20:48;10.13;;;5.72;;
58756;SDS011;44527;47.460;19.016;2022-08-19T06:23:58;10.30;;;5.82;;
58756;SDS011;44527;47.460;19.016;2022-08-19T06:27:02;13.62;;;5.20;;
58756;SDS011;44527;47.460;19.016;2022-08-19T06:30:05;13.05;;;5.07;;
58756;SDS011;44527;47.460;19.016;2022-08-19T06:33:08;9.82;;;4.87;;
58756;SDS011;44527;47.460;19.016;2022-08-19T06:36:21;7.70;;;5.00;;
58756;SDS011;44527;47.460;19.016;2022-08-19T06:39:32;17.05;;;5.43;;
58756;SDS011;44527;47.460;19.016;2022-08-19T06:42:40;10.23;;;5.03;;
58756;SDS011;44527;47.460;19.016;2022-08-19T06:45:56;13.40;;;5.07;;
58756;SDS011;44527;47.460;19.016;2022-08-19T06:49:00;12.02;;;4.93;;
58756;SDS011;44527;47.460;19.016;2022-08-19T06:52:03;15.88;;;4.80;;
58756;SDS011;44527;47.460;19.016;2022-08-19T06:55:06;11.57;;;5.07;;
58756;SDS011;44527;47.460;19.016;2022-08-19T06:58:09;20.90;;;4.87;;
58756;SDS011;44527;47.460;19.016;2022-08-19T07:01:11;8.73;;;4.70;;
58756;SDS011;44527;47.460;19.016;2022-08-19T07:04:15;7.90;;;4.62;;
58756;SDS011;44527;47.460;19.016;2022-08-19T07:07:20;14.23;;;4.80;;
58756;SDS011;44527;47.460;19.016;2022-08-19T07:10:24;10.73;;;4.80;;
58756;SDS011;44527;47.460;19.016;2022-08-19T07:13:27;11.90;;;4.93;;
58756;SDS011;44527;47.460;19.016;2022-08-19T07:16:29;9.05;;;4.30;;
58756;SDS011;44527;47.460;19.016;2022-08-19T07:19:32;12.25;;;4.62;;
58756;SDS011;44527;47.460;19.016;2022-08-19T07:22:36;11.93;;;4.87;;
58756;SDS011;44527;47.460;19.016;2022-08-19T07:25:39;14.07;;;4.82;;
58756;SDS011;44527;47.460;19.016;2022-08-19T07:28:42;12.40;;;4.30;;
58756;SDS011;44527;47.460;19.016;2022-08-19T07:31:52;12.23;;;4.90;;
58756;SDS011;44527;47.460;19.016;2022-08-19T07:34:58;16.60;;;4.30;;
58756;SDS011;44527;47.460;19.016;2022-08-19T07:38:02;12.13;;;4.83;;
58756;SDS011;44527;47.460;19.016;2022-08-19T07:41:06;7.62;;;4.70;;
58756;SDS011;44527;47.460;19.016;2022-08-19T07:44:10;9.38;;;4.18;;
58756;SDS011;44527;47.460;19.016;2022-08-19T07:47:14;9.27;;;4.25;;
58756;SDS011;44527;47.460;19.016;2022-08-19T07:50:37;6.80;;;4.45;;
58756;SDS011;44527;47.460;19.016;2022-08-19T07:53:40;8.43;;;4.50;;
58756;SDS011;44527;47.460;19.016;2022-08-19T07:56:44;13.27;;;4.82;;
58756;SDS011;44527;47.460;19.016;2022-08-19T07:59:46;9.10;;;4.57;;
58756;SDS011;44527;47.460;19.016;2022-08-19T08:02:49;8.95;;;4.68;;
58756;SDS011;44527;47.460;19.016;2022-08-19T08:05:52;7.95;;;4.62;;
58756;SDS011;44527;47.460;19.016;2022-08-19T08:09:14;6.37;;;4.43;;
58756;SDS011;44527;47.460;19.016;2022-08-19T08:12:30;12.20;;;5.15;;
58756;SDS011;44527;47.460;19.016;2022-08-19T08:15:37;11.93;;;5.20;;
58756;SDS011;44527;47.460;19.016;2022-08-19T08:18:45;6.45;;;4.45;;
58756;SDS011;44527;47.460;19.016;2022-08-19T08:21:55;10.23;;;4.68;;
58756;SDS011;44527;47.460;19.016;2022-08-19T08:28:15;11.53;;;4.73;;
58756;SDS011;44527;47.460;19.016;2022-08-19T08:31:19;19.42;;;4.62;;
58756;SDS011;44527;47.460;19.016;2022-08-19T08:34:22;18.17;;;5.00;;
58756;SDS011;44527;47.460;19.016;2022-08-19T08:37:25;9.20;;;4.60;;
58756;SDS011;44527;47.460;19.016;2022-08-19T08:40:29;8.80;;;4.82;;
58756;SDS011;44527;47.460;19.016;2022-08-19T08:43:37;7.18;;;4.68;;
58756;SDS011;44527;47.460;19.016;2022-08-19T08:46:46;10.88;;;3.85;;
58756;SDS011;44527;47.460;19.016;2022-08-19T08:49:55;6.80;;;4.30;;
58756;SDS011;44527;47.460;19.016;2022-08-19T08:53:02;15.93;;;4.22;;
58756;SDS011;44527;47.460;19.016;2022-08-19T08:56:15;13.63;;;4.67;;
58756;SDS011;44527;47.460;19.016;2022-08-19T09:02:29;9.80;;;4.50;;
58756;SDS011;44527;47.460;19.016;2022-08-19T10:23:15;15.50;;;4.80;;
58756;SDS011;44527;47.460;19.016;2022-08-19T10:26:20;7.93;;;4.15;;
58756;SDS011;44527;47.460;19.016;2022-08-19T10:29:27;6.85;;;4.50;;
58756;SDS011;44527;47.460;19.016;2022-08-19T10:32:34;8.25;;;4.25;;
58756;SDS011;44527;47.460;19.016;2022-08-19T10:35:37;11.68;;;4.75;;
58756;SDS011;44527;47.460;19.016;2022-08-19T10:38:59;9.02;;;4.20;;
58756;SDS011;44527;47.460;19.016;2022-08-19T10:42:06;5.82;;;4.30;;
58756;SDS011;44527;47.460;19.016;2022-08-19T10:45:09;14.48;;;4.18;;
58756;SDS011;44527;47.460;19.016;2022-08-19T10:48:12;8.02;;;4.22;;
58756;SDS011;44527;47.460;19.016;2022-08-19T10:51:21;8.90;;;4.55;;
58756;SDS011;44527;47.460;19.016;2022-08-19T10:54:49;7.40;;;3.95;;
58756;SDS011;44527;47.460;19.016;2022-08-19T10:58:14;7.50;;;3.87;;
58756;SDS011;44527;47.460;19.016;2022-08-19T11:01:18;15.52;;;4.47;;
58756;SDS011;44527;47.460;19.016;2022-08-19T11:04:22;8.07;;;3.97;;
58756;SDS011;44527;47.460;19.016;2022-08-19T11:07:30;6.70;;;4.00;;
58756;SDS011;44527;47.460;19.016;2022-08-19T11:10:33;5.62;;;4.05;;
58756;SDS011;44527;47.460;19.016;2022-08-19T11:13:36;9.00;;;4.78;;
58756;SDS011;44527;47.460;19.016;2022-08-19T11:16:42;11.55;;;4.47;;
58756;SDS011;44527;47.460;19.016;2022-08-19T11:19:44;7.80;;;3.92;;
58756;SDS011;44527;47.460;19.016;2022-08-19T11:22:48;10.07;;;4.10;;
58756;SDS011;44527;47.460;19.016;2022-08-19T11:25:55;8.80;;;4.65;;
58756;SDS011;44527;47.460;19.016;2022-08-19T11:28:59;7.95;;;5.12;;
58756;SDS011;44527;47.460;19.016;2022-08-19T11:32:08;9.60;;;5.28;;
58756;SDS011;44527;47.460;19.016;2022-08-19T11:35:12;12.65;;;4.72;;
58756;SDS011;44527;47.460;19.016;2022-08-19T11:38:17;7.57;;;5.03;;
58756;SDS011;44527;47.460;19.016;2022-08-19T11:41:21;13.73;;;4.35;;
58756;SDS011;44527;47.460;19.016;2022-08-19T11:44:25;12.98;;;4.95;;
58756;SDS011;44527;47.460;19.016;2022-08-19T11:47:29;7.55;;;5.47;;
58756;SDS011;44527;47.460;19.016;2022-08-19T11:50:32;14.75;;;7.72;;
58756;SDS011;44527;47.460;19.016;2022-08-19T11:53:37;17.58;;;6.47;;
58756;SDS011;44527;47.460;19.016;2022-08-19T11:56:40;14.98;;;7.25;;
58756;SDS011;44527;47.460;19.016;2022-08-19T11:59:47;13.93;;;6.00;;
58756;SDS011;44527;47.460;19.016;2022-08-19T12:02:51;15.13;;;7.12;;
58756;SDS011;44527;47.460;19.016;2022-08-19T12:05:53;19.62;;;8.27;;
58756;SDS011;44527;47.460;19.016;2022-08-19T12:08:56;18.02;;;8.30;;
58756;SDS011;44527;47.460;19.016;2022-08-19T12:12:04;14.73;;;7.55;;
58756;SDS011;44527;47.460;19.016;2022-08-19T12:15:08;23.55;;;7.28;;
58756;SDS011;44527;47.460;19.016;2022-08-19T12:18:13;21.83;;;6.70;;
58756;SDS011;44527;47.460;19.016;2022-08-19T12:21:18;11.20;;;6.55;;
58756;SDS011;44527;47.460;19.016;2022-08-19T12:24:31;14.27;;;6.37;;
58756;SDS011;44527;47.460;19.016;2022-08-19T12:27:34;18.80;;;7.30;;
58756;SDS011;44527;47.460;19.016;2022-08-19T12:30:42;17.55;;;7.22;;
58756;SDS011;44527;47.460;19.016;2022-08-19T12:33:46;19.60;;;6.25;;
58756;SDS011;44527;47.460;19.016;2022-08-19T12:36:49;18.92;;;7.20;;
58756;SDS011;44527;47.460;19.016;2022-08-19T12:39:51;14.52;;;6.80;;
58756;SDS011;44527;47.460;19.016;2022-08-19T12:42:54;14.40;;;7.55;;
58756;SDS011;44527;47.460;19.016;2022-08-19T12:45:57;14.15;;;7.55;;
58756;SDS011;44527;47.460;19.016;2022-08-19T12:48:59;18.27;;;8.27;;
58756;SDS011;44527;47.460;19.016;2022-08-19T12:52:07;14.00;;;8.25;;
58756;SDS011;44527;47.460;19.016;2022-08-19T12:55:11;16.33;;;8.73;;
58756;SDS011;44527;47.460;19.016;2022-08-19T12:58:13;14.05;;;8.70;;
58756;SDS011;44527;47.460;19.016;2022-08-19T13:01:16;13.18;;;9.68;;
58756;SDS011;44527;47.460;19.016;2022-08-19T13:04:23;19.08;;;9.10;;
58756;SDS011;44527;47.460;19.016;2022-08-19T13:07:26;16.80;;;8.65;;
58756;SDS011;44527;47.460;19.016;2022-08-19T13:10:30;11.48;;;5.45;;
58756;SDS011;44527;47.460;19.016;2022-08-19T13:13:37;22.42;;;4.50;;
58756;SDS011;44527;47.460;19.016;2022-08-19T13:16:42;13.37;;;3.73;;
58756;SDS011;44527;47.460;19.016;2022-08-19T13:19:45;18.20;;;4.20;;
58756;SDS011;44527;47.460;19.016;2022-08-19T13:22:51;11.35;;;3.45;;
58756;SDS011;44527;47.460;19.016;2022-08-19T13:25:56;15.50;;;4.00;;
58756;SDS011;44527;47.460;19.016;2022-08-19T13:28:59;12.27;;;3.37;;
58756;SDS011;44527;47.460;19.016;2022-08-19T13:32:21;14.90;;;3.72;;
58756;SDS011;44527;47.460;19.016;2022-08-19T13:35:45;11.98;;;3.50;;
58756;SDS011;44527;47.460;19.016;2022-08-19T13:38:52;18.75;;;4.18;;
58756;SDS011;44527;47.460;19.016;2022-08-19T13:41:55;8.07;;;3.33;;
58756;SDS011;44527;47.460;19.016;2022-08-19T13:44:58;15.63;;;3.50;;
58756;SDS011;44527;47.460;19.016;2022-08-19T13:48:03;19.55;;;3.53;;
58756;SDS011;44527;47.460;19.016;2022-08-19T13:51:10;8.10;;;3.20;;
58756;SDS011;44527;47.460;19.016;2022-08-19T13:54:12;25.98;;;4.32;;
58756;SDS011;44527;47.460;19.016;2022-08-19T13:57:15;42.15;;;4.10;;
58756;SDS011;44527;47.460;19.016;2022-08-19T14:00:18;34.08;;;4.62;;
58756;SDS011;44527;47.460;19.016;2022-08-19T14:03:22;17.87;;;3.58;;
58756;SDS011;44527;47.460;19.016;2022-08-19T14:06:25;24.75;;;3.53;;
58756;SDS011;44527;47.460;19.016;2022-08-19T14:09:27;27.40;;;3.85;;
58756;SDS011;44527;47.460;19.016;2022-08-19T14:12:30;22.42;;;4.10;;
58756;SDS011;44527;47.460;19.016;2022-08-19T14:15:34;16.85;;;3.62;;
58756;SDS011;44527;47.460;19.016;2022-08-19T14:18:36;24.42;;;3.40;;
58756;SDS011;44527;47.460;19.016;2022-08-19T14:21:39;21.98;;;3.42;;
58756;SDS011;44527;47.460;19.016;2022-08-19T14:24:42;15.25;;;3.35;;
58756;SDS011;44527;47.460;19.016;2022-08-19T14:27:49;18.27;;;3.75;;
58756;SDS011;44527;47.460;19.016;2022-08-19T14:30:52;13.27;;;3.05;;
58756;SDS011;44527;47.460;19.016;2022-08-19T14:33:57;13.00;;;3.53;;
58756;SDS011;44527;47.460;19.016;2022-08-19T14:36:59;18.83;;;3.65;;
58756;SDS011;44527;47.460;19.016;2022-08-19T14:40:03;21.27;;;3.70;;
58756;SDS011;44527;47.460;19.016;2022-08-19T14:43:09;16.10;;;3.35;;
58756;SDS011;44527;47.460;19.016;2022-08-19T14:46:12;29.67;;;2.53;;
58756;SDS011;44527;47.460;19.016;2022-08-19T14:52:20;21.55;;;3.35;;
58756;SDS011;44527;47.460;19.016;2022-08-19T14:55:23;22.25;;;2.65;;
58756;SDS011;44527;47.460;19.016;2022-08-19T14:58:25;20.65;;;2.37;;
58756;SDS011;44527;47.460;19.016;2022-08-19T15:01:31;23.20;;;2.80;;
58756;SDS011;44527;47.460;19.016;2022-08-19T15:04:33;19.85;;;2.80;;
58756;SDS011;44527;47.460;19.016;2022-08-19T15:07:38;16.40;;;2.60;;
58756;SDS011;44527;47.460;19.016;2022-08-19T15:10:41;17.05;;;2.70;;
58756;SDS011;44527;47.460;19.016;2022-08-19T15:13:43;22.10;;;2.60;;
58756;SDS011;44527;47.460;19.016;2022-08-19T15:16:48;12.45;;;2.20;;
58756;SDS011;44527;47.460;19.016;2022-08-19T15:19:51;18.98;;;2.45;;
58756;SDS011;44527;47.460;19.016;2022-08-19T15:22:54;13.20;;;2.55;;
58756;SDS011;44527;47.460;19.016;2022-08-19T15:25:56;21.85;;;2.50;;
58756;SDS011;44527;47.460;19.016;2022-08-19T15:29:00;20.80;;;2.37;;
58756;SDS011;44527;47.460;19.016;2022-08-19T15:32:03;21.65;;;2.72;;
58756;SDS011;44527;47.460;19.016;2022-08-19T15:35:08;16.08;;;2.50;;
58756;SDS011;44527;47.460;19.016;2022-08-19T15:38:10;16.50;;;1.92;;
58756;SDS011;44527;47.460;19.016;2022-08-19T15:41:19;18.20;;;2.75;;
58756;SDS011;44527;47.460;19.016;2022-08-19T15:44:26;16.17;;;2.42;;
58756;SDS011;44527;47.460;19.016;2022-08-19T15:47:29;21.25;;;2.80;;
58756;SDS011;44527;47.460;19.016;2022-08-19T15:50:36;16.80;;;2.35;;
58756;SDS011;44527;47.460;19.016;2022-08-19T15:53:40;19.30;;;2.95;;
58756;SDS011;44527;47.460;19.016;2022-08-19T15:56:43;24.75;;;2.70;;
58756;SDS011;44527;47.460;19.016;2022-08-19T16:00:05;15.55;;;2.62;;
58756;SDS011;44527;47.460;19.016;2022-08-19T16:03:28;17.60;;;3.15;;
58756;SDS011;44527;47.460;19.016;2022-08-19T16:06:51;17.85;;;2.80;;
58756;SDS011;44527;47.460;19.016;2022-08-19T16:09:56;16.65;;;2.58;;
58756;SDS011;44527;47.460;19.016;2022-08-19T16:13:18;20.70;;;2.60;;
58756;SDS011;44527;47.460;19.016;2022-08-19T16:16:24;14.25;;;2.85;;
58756;SDS011;44527;47.460;19.016;2022-08-19T16:19:34;19.87;;;2.92;;
58756;SDS011;44527;47.460;19.016;2022-08-19T16:22:37;22.33;;;3.28;;
58756;SDS011;44527;47.460;19.016;2022-08-19T16:25:40;16.30;;;2.65;;
58756;SDS011;44527;47.460;19.016;2022-08-19T16:28:43;12.13;;;2.15;;
58756;SDS011;44527;47.460;19.016;2022-08-19T16:31:49;16.77;;;2.70;;
58756;SDS011;44527;47.460;19.016;2022-08-19T16:34:51;19.92;;;3.28;;
58756;SDS011;44527;47.460;19.016;2022-08-19T16:37:54;20.77;;;2.45;;
58756;SDS011;44527;47.460;19.016;2022-08-19T16:40:57;19.08;;;2.47;;
58756;SDS011;44527;47.460;19.016;2022-08-19T16:44:01;11.18;;;2.50;;
58756;SDS011;44527;47.460;19.016;2022-08-19T16:47:04;21.15;;;3.50;;
58756;SDS011;44527;47.460;19.016;2022-08-19T16:50:06;12.70;;;2.85;;
58756;SDS011;44527;47.460;19.016;2022-08-19T16:53:09;18.02;;;3.35;;
58756;SDS011;44527;47.460;19.016;2022-08-19T16:56:11;15.75;;;2.83;;
58756;SDS011;44527;47.460;19.016;2022-08-19T16:59:14;14.18;;;2.97;;
58756;SDS011;44527;47.460;19.016;2022-08-19T17:02:18;11.73;;;3.10;;
58756;SDS011;44527;47.460;19.016;2022-08-19T17:05:23;18.65;;;3.30;;
58756;SDS011;44527;47.460;19.016;2022-08-19T17:08:25;22.08;;;3.72;;
58756;SDS011;44527;47.460;19.016;2022-08-19T17:11:28;13.52;;;2.95;;
58756;SDS011;44527;47.460;19.016;2022-08-19T17:14:32;19.05;;;3.53;;
58756;SDS011;44527;47.460;19.016;2022-08-19T17:17:35;16.12;;;3.37;;
58756;SDS011;44527;47.460;19.016;2022-08-19T17:20:38;11.27;;;2.90;;
58756;SDS011;44527;47.460;19.016;2022-08-19T17:23:42;15.65;;;3.60;;
58756;SDS011;44527;47.460;19.016;2022-08-19T17:26:45;11.77;;;3.25;;
58756;SDS011;44527;47.460;19.016;2022-08-19T17:29:47;11.40;;;2.83;;
58756;SDS011;44527;47.460;19.016;2022-08-19T17:32:50;14.05;;;2.40;;
58756;SDS011;44527;47.460;19.016;2022-08-19T17:35:53;16.87;;;2.67;;
58756;SDS011;44527;47.460;19.016;2022-08-19T17:38:58;19.05;;;3.30;;
58756;SDS011;44527;47.460;19.016;2022-08-19T17:42:02;13.50;;;2.67;;
58756;SDS011;44527;47.460;19.016;2022-08-19T17:45:07;12.00;;;2.70;;
58756;SDS011;44527;47.460;19.016;2022-08-19T17:48:11;16.10;;;2.55;;
58756;SDS011;44527;47.460;19.016;2022-08-19T17:51:17;10.25;;;2.50;;
58756;SDS011;44527;47.460;19.016;2022-08-19T17:54:25;15.27;;;2.92;;
58756;SDS011;44527;47.460;19.016;2022-08-19T17:57:35;17.60;;;3.35;;
58756;SDS011;44527;47.460;19.016;2022-08-19T18:00:39;17.02;;;3.60;;
58756;SDS011;44527;47.460;19.016;2022-08-19T18:03:59;12.75;;;3.42;;
58756;SDS011;44527;47.460;19.016;2022-08-19T18:07:02;11.25;;;2.70;;
58756;SDS011;44527;47.460;19.016;2022-08-19T18:10:05;11.38;;;2.53;;
58756;SDS011;44527;47.460;19.016;2022-08-19T18:13:08;12.80;;;3.12;;
58756;SDS011;44527;47.460;19.016;2022-08-19T18:16:19;16.33;;;3.15;;
58756;SDS011;44527;47.460;19.016;2022-08-19T18:19:23;15.27;;;2.62;;
58756;SDS011;44527;47.460;19.016;2022-08-19T18:22:32;8.65;;;2.58;;
58756;SDS011;44527;47.460;19.016;2022-08-19T18:25:37;17.70;;;2.47;;
58756;SDS011;44527;47.460;19.016;2022-08-19T18:28:44;18.20;;;2.55;;
58756;SDS011;44527;47.460;19.016;2022-08-19T18:31:51;13.88;;;2.92;;
58756;SDS011;44527;47.460;19.016;2022-08-19T18:35:03;22.75;;;3.70;;
58756;SDS011;44527;47.460;19.016;2022-08-19T18:38:13;18.75;;;2.83;;
58756;SDS011;44527;47.460;19.016;2022-08-19T18:41:35;19.00;;;3.33;;
58756;SDS011;44527;47.460;19.016;2022-08-19T18:44:56;12.10;;;3.08;;
58756;SDS011;44527;47.460;19.016;2022-08-19T18:48:17;19.27;;;2.95;;
58756;SDS011;44527;47.460;19.016;2022-08-19T18:51:38;17.20;;;3.53;;
58756;SDS011;44527;47.460;19.016;2022-08-19T18:54:41;20.88;;;5.57;;
58756;SDS011;44527;47.460;19.016;2022-08-19T18:57:48;19.90;;;4.50;;
58756;SDS011;44527;47.460;19.016;2022-08-19T19:00:53;20.55;;;4.28;;
58756;SDS011;44527;47.460;19.016;2022-08-19T19:04:00;19.10;;;4.82;;
58756;SDS011;44527;47.460;19.016;2022-08-19T19:07:04;15.73;;;4.87;;
58756;SDS011;44527;47.460;19.016;2022-08-19T19:10:07;23.20;;;3.97;;
58756;SDS011;44527;47.460;19.016;2022-08-19T19:13:10;22.73;;;4.87;;
58756;SDS011;44527;47.460;19.016;2022-08-19T19:16:17;29.83;;;5.03;;
58756;SDS011;44527;47.460;19.016;2022-08-19T19:19:25;17.90;;;5.25;;
58756;SDS011;44527;47.460;19.016;2022-08-19T19:22:27;27.35;;;4.90;;
58756;SDS011;44527;47.460;19.016;2022-08-19T19:25:30;19.37;;;3.87;;
58756;SDS011;44527;47.460;19.016;2022-08-19T19:28:52;19.35;;;4.12;;
58756;SDS011;44527;47.460;19.016;2022-08-19T19:31:55;22.15;;;4.82;;
58756;SDS011;44527;47.460;19.016;2022-08-19T19:34:58;25.40;;;5.45;;
58756;SDS011;44527;47.460;19.016;2022-08-19T19:38:00;26.65;;;5.28;;
58756;SDS011;44527;47.460;19.016;2022-08-19T19:41:03;23.58;;;4.87;;